Date,TemperatureHighF,TemperatureAvgF,TemperatureLowF,DewpointHighF,DewpointAvgF,DewpointLowF,HumidityHigh,HumidityAvg,HumidityLow,PressureMaxIn,PressureMinIn,WindSpeedMaxMPH,WindSpeedAvgMPH,GustSpeedMaxMPH,PrecipitationSumIn
2013-1-1,39.1,36.5,28.5,0.0,0.0,0.0,0,0,100,29.84,29.67,9,2,16,0.07
2013-1-2,30.9,27.3,21.4,0.0,0.0,0.0,0,0,100,30.01,29.83,12,2,19,0.00
2013-1-3,29.3,25.3,20.8,0.0,0.0,0.0,0,0,100,30.05,29.92,9,1,13,0.00
2013-1-4,37.5,31.5,23.6,0.0,0.0,0.0,0,0,100,29.94,29.78,5,1,16,0.00
2013-1-5,41.8,33.1,26.1,0.0,0.0,0.0,0,0,100,30.14,29.84,9,1,17,0.00
2013-1-6,42.6,34.8,28.5,0.0,0.0,0.0,0,0,100,30.09,29.84,4,0,11,0.01
2013-1-7,42.3,33.5,25.0,0.0,0.0,0.0,0,0,100,30.27,29.89,7,1,19,0.00
2013-1-8,46.0,34.6,25.6,0.0,0.0,0.0,0,0,100,30.30,30.21,6,1,15,0.00
2013-1-9,47.4,37.6,25.7,0.0,0.0,0.0,0,0,100,30.26,29.98,7,1,13,0.00
2013-1-10,45.8,40.2,31.5,0.0,0.0,0.0,0,0,100,30.42,30.06,15,2,19,0.00
2013-1-11,46.5,38.1,27.6,0.0,0.0,0.0,0,0,100,30.41,29.99,2,0,7,0.41
2013-1-12,47.7,44.9,42.9,0.0,0.0,0.0,0,0,100,30.04,29.92,3,0,8,0.14
2013-1-13,48.8,44.9,40.9,0.0,0.0,0.0,0,0,100,30.05,29.90,2,0,6,0.01
2013-1-14,56.9,49.0,38.0,0.0,0.0,0.0,0,0,100,30.14,29.83,5,0,14,0.04
2013-1-15,39.1,37.2,35.2,0.0,0.0,0.0,0,0,100,30.20,30.08,2,0,9,0.20
2013-1-16,38.0,36.0,34.0,0.0,0.0,0.0,0,0,100,30.10,29.66,4,0,15,0.92
2013-1-17,42.6,38.3,32.7,0.0,0.0,0.0,0,0,100,29.95,29.83,12,2,16,0.01
2013-1-18,33.7,26.5,18.9,0.0,0.0,0.0,0,0,100,30.37,29.88,10,1,23,0.00
2013-1-19,45.5,39.0,20.3,0.0,0.0,0.0,0,0,100,30.30,29.82,11,2,15,0.01
2013-1-20,54.1,43.9,31.6,0.0,0.0,0.0,0,0,100,29.87,29.53,15,3,19,0.00
2013-1-21,33.7,29.3,23.2,0.0,0.0,0.0,0,0,100,29.98,29.67,6,1,11,0.00
2013-1-22,27.5,20.6,14.1,0.0,0.0,0.0,0,0,100,30.02,29.66,19,3,23,0.00
2013-1-23,16.9,13.7,6.5,0.0,0.0,0.0,0,0,100,30.05,30.02,6,2,16,0.00
2013-1-24,21.4,13.5,2.2,0.0,0.0,0.0,0,0,100,30.21,29.99,13,2,25,0.00
2013-1-25,24.8,17.5,6.1,0.0,0.0,0.0,0,0,100,30.26,29.91,11,1,15,0.00
2013-1-26,24.8,20.5,11.2,0.0,0.0,0.0,0,0,100,30.20,29.89,15,2,22,0.00
2013-1-27,30.6,20.0,7.9,0.0,0.0,0.0,0,0,100,30.36,30.20,12,1,21,0.00
2013-1-28,35.5,27.8,15.2,0.0,0.0,0.0,0,0,100,30.34,29.86,4,0,7,0.22
2013-1-29,42.3,36.4,32.5,0.0,0.0,0.0,0,0,100,30.03,29.85,2,0,4,0.02
2013-1-30,55.4,50.4,40.2,0.0,0.0,0.0,0,0,100,29.98,29.31,7,2,17,0.00
2013-1-31,56.7,45.7,30.1,0.0,0.0,0.0,0,0,100,29.61,28.96,22,5,30,0.32
2013-2-1,31.5,28.8,24.4,0.0,0.0,0.0,0,0,100,30.06,29.61,17,4,30,0.00
2013-2-2,29.8,25.5,18.1,0.0,0.0,0.0,0,0,100,30.17,29.94,7,1,17,0.00
2013-2-3,31.3,25.6,19.4,0.0,0.0,0.0,0,0,100,29.94,29.63,5,0,11,0.02
2013-2-4,30.7,25.9,19.2,0.0,0.0,0.0,0,0,100,29.84,29.64,13,2,23,0.00
2013-2-5,30.9,28.8,24.5,0.0,0.0,0.0,0,0,100,29.84,29.76,2,0,5,0.00
2013-2-6,38.6,32.3,26.6,0.0,0.0,0.0,0,0,100,30.21,29.77,13,2,26,0.02
2013-2-7,33.1,27.6,21.8,0.0,0.0,0.0,0,0,100,30.38,30.21,3,0,12,0.01
2013-2-8,36.5,33.2,29.8,0.0,0.0,0.0,0,0,100,30.22,29.37,6,1,11,0.54
2013-2-9,31.6,30.7,27.5,0.0,0.0,0.0,0,0,100,30.14,29.49,4,0,11,0.00
2013-2-10,27.5,22.2,14.3,0.0,0.0,0.0,0,0,100,30.33,30.14,1,0,4,0.00
2013-2-11,40.1,32.7,17.7,0.0,0.0,0.0,0,0,100,30.22,29.52,4,0,15,1.22
2013-2-12,41.5,36.5,29.3,0.0,0.0,0.0,0,0,100,29.81,29.55,22,2,26,0.19
2013-2-13,39.1,31.2,21.4,0.0,0.0,0.0,0,0,100,29.80,29.53,4,0,6,0.02
2013-2-14,40.5,32.5,23.0,0.0,0.0,0.0,0,0,100,29.88,29.55,3,0,10,0.08
2013-2-15,42.5,34.2,26.1,0.0,0.0,0.0,0,0,100,29.90,29.80,4,0,13,0.00
2013-2-16,37.0,34.0,29.5,0.0,0.0,0.0,0,0,100,29.80,29.54,6,1,12,0.01
2013-2-17,30.3,25.2,16.9,0.0,0.0,0.0,0,0,100,29.75,29.43,20,5,35,0.00
2013-2-18,30.7,22.4,16.9,0.0,0.0,0.0,0,0,100,30.09,29.75,24,4,31,0.00
2013-2-19,43.9,34.6,21.6,0.0,0.0,0.0,0,0,100,30.09,29.51,9,1,12,0.34
2013-2-20,37.9,31.0,25.0,0.0,0.0,0.0,0,0,100,29.80,29.53,18,4,25,0.00
2013-2-21,33.5,27.1,22.5,0.0,0.0,0.0,0,0,100,30.11,29.77,19,4,29,0.00
2013-2-22,37.3,30.8,24.1,0.0,0.0,0.0,0,0,100,30.25,30.10,4,0,13,0.00
2013-2-23,39.1,36.5,33.2,0.0,0.0,0.0,0,0,100,30.15,29.65,4,1,9,0.19
2013-2-24,41.6,36.8,32.2,0.0,0.0,0.0,0,0,100,29.78,29.57,10,2,18,0.02
2013-2-25,43.2,35.4,26.3,0.0,0.0,0.0,0,0,100,30.10,29.78,6,0,11,0.00
2013-2-26,41.8,37.3,33.8,0.0,0.0,0.0,0,0,100,30.18,29.84,5,1,10,0.16
2013-2-27,47.3,42.6,36.9,0.0,0.0,0.0,0,0,100,29.81,29.37,10,2,18,1.57
2013-2-28,46.1,39.6,34.0,0.0,0.0,0.0,0,0,100,29.49,29.39,9,0,11,0.19
2013-3-1,44.9,39.0,32.9,0.0,0.0,0.0,0,0,100,29.60,29.43,11,2,17,0.01
2013-3-2,39.5,36.5,33.7,0.0,0.0,0.0,0,0,100,29.61,29.52,11,2,16,0.02
2013-3-3,37.3,32.9,30.0,0.0,0.0,0.0,0,0,100,29.57,29.49,12,2,21,0.00
2013-3-4,41.6,34.1,29.5,0.0,0.0,0.0,0,0,100,29.70,29.55,15,4,23,0.00
2013-3-5,46.2,37.6,30.6,0.0,0.0,0.0,0,0,100,29.90,29.70,8,1,19,0.00
2013-3-6,42.2,38.0,31.2,0.0,0.0,0.0,0,0,100,29.87,29.69,0,0,1,0.03
2013-3-7,36.3,33.9,32.4,0.0,0.0,0.0,0,0,100,29.87,29.72,0,0,1,0.28
2013-3-8,35.8,33.4,31.9,0.0,0.0,0.0,0,0,100,29.98,29.80,0,0,0,0.42
2013-3-9,46.2,36.9,28.7,0.0,0.0,0.0,0,0,100,30.20,29.98,0,0,0,0.33
2013-3-10,42.2,33.6,24.4,0.0,0.0,0.0,0,0,100,30.27,30.18,0,0,0,0.13
2013-3-11,50.8,41.4,30.3,0.0,0.0,0.0,0,0,100,30.20,29.98,0,0,0,0.09
2013-3-12,51.7,48.8,44.6,0.0,0.0,0.0,0,0,100,29.99,29.57,1,0,3,0.71
2013-3-13,50.1,41.7,31.5,0.0,0.0,0.0,0,0,100,29.73,29.64,0,0,0,0.00
2013-3-14,39.2,33.3,26.4,0.0,0.0,0.0,0,0,100,29.78,29.69,0,0,0,0.00
2013-3-15,43.2,36.0,26.3,0.0,0.0,0.0,0,0,100,29.81,29.58,0,0,0,0.00
2013-3-16,39.6,34.3,29.1,0.0,0.0,0.0,0,0,100,29.75,29.61,0,0,0,0.04
2013-3-17,37.3,31.2,24.1,0.0,0.0,0.0,0,0,100,30.16,29.75,0,0,0,0.02
2013-3-18,36.8,31.4,24.2,0.0,0.0,0.0,0,0,100,30.29,29.92,0,0,1,0.03
2013-3-19,39.9,36.6,31.6,0.0,0.0,0.0,0,0,100,29.92,29.49,0,0,0,1.00
2013-3-20,44.1,35.6,28.4,0.0,0.0,0.0,0,0,100,29.73,29.64,0,0,0,0.00
2013-3-21,37.6,32.2,27.6,0.0,0.0,0.0,0,0,100,29.70,29.49,0,0,0,0.00
2013-3-22,41.9,33.8,24.7,0.0,0.0,0.0,0,0,100,29.72,29.55,0,0,0,0.00
2013-3-23,45.7,37.7,27.8,0.0,0.0,0.0,0,0,100,29.75,29.61,0,0,0,0.00
2013-3-24,45.8,35.7,26.3,0.0,0.0,0.0,0,0,100,29.79,29.58,0,0,0,0.00
2013-3-25,41.3,36.9,32.7,0.0,0.0,0.0,0,0,100,29.61,29.29,0,0,0,0.09
2013-3-26,50.2,39.6,30.3,0.0,0.0,0.0,0,0,100,29.69,29.40,0,0,0,0.02
2013-3-27,52.9,40.3,28.5,0.0,0.0,0.0,0,0,100,29.78,29.69,0,0,0,0.00
2013-3-28,50.5,42.3,33.5,0.0,0.0,0.0,0,0,100,29.93,29.78,0,0,0,0.00
2013-3-29,55.1,45.9,36.0,0.0,0.0,0.0,0,0,100,29.97,29.89,0,0,0,0.00
2013-3-30,59.4,42.9,29.0,33.7,12.8,0.0,83,22,24,30.01,29.92,11,1,16,0.00
2013-3-31,55.1,43.0,29.2,45.2,36.0,26.3,97,78,53,30.00,29.51,5,1,11,0.12
2013-4-1,55.9,46.0,36.9,47.7,41.9,21.6,97,86,53,29.72,29.48,7,2,17,0.12
2013-4-2,44.2,36.3,27.8,22.1,16.1,10.9,78,45,27,29.92,29.73,14,3,27,0.00
2013-4-3,46.8,37.8,30.3,16.7,13.7,10.7,55,38,25,30.12,29.92,17,4,25,0.00
2013-4-4,46.7,37.9,24.7,33.4,23.0,14.2,77,56,39,30.25,29.98,6,2,13,0.00
2013-4-5,62.7,47.0,40.2,40.2,31.0,20.5,92,60,21,29.98,29.54,11,2,17,0.00
2013-4-6,50.4,39.9,32.1,27.9,18.2,6.6,78,44,18,30.20,29.80,13,2,21,0.00
2013-4-7,54.5,42.3,29.3,43.7,35.1,25.1,94,76,57,30.19,29.90,9,2,15,0.00
2013-4-8,67.8,53.2,40.1,48.5,44.3,37.9,97,74,46,29.95,29.84,5,1,11,0.00
2013-4-9,80.9,62.0,48.6,53.4,45.3,38.9,93,61,23,29.90,29.77,16,2,27,0.00
2013-4-10,68.0,55.9,48.8,52.7,47.7,43.2,96,75,55,29.89,29.66,10,1,33,0.17
2013-4-11,59.9,51.2,46.1,53.0,47.2,37.6,99,87,72,29.93,29.64,5,2,10,0.13
2013-4-12,46.1,42.7,40.0,42.0,38.8,33.6,97,87,66,29.93,29.57,9,2,15,0.88
2013-4-13,56.9,45.6,37.6,41.7,38.5,33.7,97,79,43,29.84,29.57,13,2,16,0.08
2013-4-14,57.5,49.4,41.4,44.9,35.5,26.6,97,63,31,30.09,29.83,18,2,22,0.00
2013-4-15,58.3,45.6,34.4,38.1,34.0,28.2,87,65,44,30.26,30.09,4,1,9,0.00
2013-4-16,60.1,51.0,38.9,52.2,45.3,35.4,96,81,70,30.25,30.01,7,2,16,0.00
2013-4-17,72.4,57.6,48.3,51.8,42.8,32.4,92,63,24,30.16,29.97,5,1,13,0.01
2013-4-18,59.4,50.7,39.3,50.8,41.9,36.2,93,73,50,30.24,30.00,7,1,11,0.00
2013-4-19,68.0,59.2,53.3,61.5,57.3,51.3,98,94,78,29.99,29.57,8,2,24,0.01
2013-4-20,60.3,52.9,46.5,59.7,41.0,28.9,98,68,34,30.10,29.54,10,2,19,0.08
2013-4-21,58.6,44.2,36.3,33.0,26.2,20.2,77,51,27,30.50,30.11,9,2,14,0.00
2013-4-22,55.9,43.4,30.8,36.8,31.9,27.3,94,66,39,30.53,30.37,6,2,12,0.00
2013-4-23,48.7,44.0,40.8,42.8,39.0,33.0,93,83,71,30.36,29.92,5,2,12,0.00
2013-4-24,61.4,50.1,43.2,48.5,44.1,40.0,96,81,57,29.92,29.76,14,2,14,0.00
2013-4-25,66.4,53.4,43.0,49.8,39.0,24.8,95,63,21,30.13,29.75,12,2,18,0.04
2013-4-26,64.7,50.4,35.0,44.0,37.4,31.5,94,64,33,30.26,30.13,9,1,10,0.00
2013-4-27,63.3,50.5,38.0,44.7,37.7,28.9,92,65,29,30.27,30.18,7,1,10,0.00
2013-4-28,64.3,53.0,40.9,47.6,41.5,34.1,98,69,33,30.20,30.10,6,1,11,0.00
2013-4-29,60.7,54.9,51.2,47.8,45.3,40.8,88,71,48,30.13,30.08,6,1,8,0.00
2013-4-30,68.3,56.2,41.9,46.8,37.7,29.1,82,54,24,30.21,30.09,6,1,9,0.00
2013-5-1,67.7,51.7,34.8,50.8,40.8,30.1,92,68,47,30.35,30.20,4,1,9,0.00
2013-5-2,68.6,53.2,35.2,49.9,42.0,31.8,96,68,43,30.33,30.20,6,1,7,0.00
2013-5-3,65.9,54.1,44.1,47.8,42.6,37.3,85,66,46,30.33,30.23,7,1,9,0.00
2013-5-4,63.6,50.8,39.4,47.0,41.0,35.9,97,71,47,30.24,30.13,5,1,9,0.00
2013-5-5,63.1,48.9,36.8,45.8,40.5,32.6,94,74,51,30.16,30.11,5,1,7,0.00
2013-5-6,69.4,54.7,43.0,51.5,46.1,39.9,91,74,49,30.14,30.03,4,1,6,0.00
2013-5-7,74.7,58.8,43.0,63.8,52.8,39.7,97,82,61,30.04,29.97,4,1,7,0.00
2013-5-8,65.2,59.6,54.9,63.7,57.9,53.8,98,94,85,29.99,29.87,4,1,12,0.31
2013-5-9,62.9,57.7,53.7,61.2,56.5,52.8,99,96,88,29.89,29.73,3,0,6,0.27
2013-5-10,75.9,62.1,49.3,60.9,54.8,48.0,99,79,49,29.86,29.79,5,1,9,0.00
2013-5-11,64.8,60.2,57.8,63.1,58.5,54.1,99,94,85,29.78,29.57,6,1,11,0.23
2013-5-12,72.0,62.0,53.8,59.8,48.6,28.8,99,67,25,29.75,29.50,12,2,16,0.02
2013-5-13,57.0,50.2,40.4,36.1,31.7,26.7,80,51,33,29.93,29.76,10,2,16,0.00
2013-5-14,62.1,49.1,37.0,41.4,33.8,26.5,87,60,27,29.96,29.89,11,2,16,0.00
2013-5-15,65.0,54.2,42.7,55.1,47.8,40.0,97,80,50,29.94,29.56,7,1,11,0.00
2013-5-16,78.3,63.2,51.4,58.7,52.4,48.7,98,72,38,29.67,29.56,6,1,9,0.00
2013-5-17,75.5,65.0,52.7,47.0,43.3,40.2,71,47,30,30.06,29.86,9,2,16,0.00
2013-5-18,69.0,58.8,50.3,57.1,51.2,43.2,92,77,49,30.18,30.07,7,1,9,0.01
2013-5-19,58.1,56.7,55.6,57.0,54.7,50.7,98,93,82,30.22,30.06,5,1,6,0.46
2013-5-20,76.6,65.0,57.0,68.3,62.3,56.4,99,92,71,30.05,29.84,5,1,9,0.01
2013-5-21,79.1,68.3,59.4,70.1,64.1,58.1,99,87,67,29.84,29.73,4,1,10,0.01
2013-5-22,76.7,64.6,56.8,69.1,61.5,55.4,96,90,74,29.82,29.74,5,1,7,0.00
2013-5-23,70.9,65.0,62.3,67.8,63.5,61.6,99,95,87,29.81,29.66,6,2,18,0.41
2013-5-24,68.2,59.2,48.0,66.2,57.8,46.7,99,95,84,29.72,29.53,7,1,16,0.19
2013-5-25,48.5,46.8,45.4,47.5,45.2,42.4,98,94,85,29.78,29.67,12,3,23,0.36
2013-5-26,67.4,54.1,45.0,43.6,41.7,38.4,87,65,38,30.05,29.75,18,3,24,0.00
2013-5-27,72.4,57.9,42.6,50.5,42.8,32.9,92,62,26,30.09,30.01,7,1,13,0.00
2013-5-28,70.0,57.4,48.0,57.4,52.7,45.8,98,86,49,30.09,30.01,4,0,6,0.41
2013-5-29,74.1,63.7,56.4,67.3,60.9,55.8,99,91,74,30.01,29.89,4,1,7,0.00
2013-5-30,86.7,73.6,60.8,72.3,65.2,59.4,98,77,54,29.98,29.93,4,1,9,0.00
2013-5-31,87.6,74.8,63.4,73.1,65.9,61.4,97,75,49,29.98,29.87,4,1,12,0.00
2013-6-1,83.7,72.7,64.0,69.8,65.6,61.4,95,79,60,29.89,29.81,5,1,10,0.00
2013-6-2,76.0,69.4,64.9,67.5,64.1,62.0,94,84,72,29.82,29.68,6,2,13,0.00
2013-6-3,72.3,66.2,63.1,70.9,65.0,62.1,99,96,89,29.73,29.66,3,1,7,0.45
2013-6-4,77.3,64.2,54.8,64.0,50.3,45.0,96,63,35,29.95,29.70,11,2,17,0.00
2013-6-5,77.4,62.7,49.4,55.0,50.1,45.4,95,68,33,30.07,29.95,3,0,5,0.00
2013-6-6,72.4,63.5,53.3,60.5,56.0,49.9,97,78,49,30.02,29.90,3,1,6,0.00
2013-6-7,66.2,60.6,58.4,66.2,59.5,57.5,100,97,87,29.89,29.50,3,1,7,4.45
2013-6-8,75.4,65.4,55.1,67.7,62.7,54.8,100,91,75,29.90,29.37,9,1,13,0.22
2013-6-9,80.6,68.6,57.8,64.2,60.3,56.6,99,77,50,30.04,29.90,4,1,10,0.00
2013-6-10,72.7,64.3,60.5,67.6,62.4,59.4,99,94,81,30.04,29.74,3,1,5,2.35
2013-6-11,76.8,69.2,62.4,71.7,67.2,61.8,100,94,76,29.73,29.46,5,1,11,0.54
2013-6-12,77.2,67.8,58.7,61.0,56.0,53.9,91,67,46,29.71,29.51,10,2,19,0.00
2013-6-13,63.5,59.4,54.2,62.5,57.5,51.9,99,93,85,29.69,29.34,4,1,10,0.55
2013-6-14,73.0,60.2,53.5,59.6,55.6,53.0,99,86,57,29.70,29.34,5,1,13,0.38
2013-6-15,81.3,68.4,57.7,61.2,55.9,49.0,93,69,33,29.84,29.70,9,1,12,0.00
2013-6-16,76.6,67.2,55.3,66.4,61.1,53.1,96,82,52,29.84,29.64,4,1,9,0.00
2013-6-17,82.7,73.5,63.4,70.5,66.3,61.7,97,80,62,29.76,29.69,5,1,10,0.00
2013-6-18,81.0,70.0,62.4,71.5,65.8,60.0,97,87,68,29.77,29.69,2,0,5,0.20
2013-6-19,78.4,66.2,58.6,61.5,58.1,50.8,98,78,39,30.02,29.72,5,1,9,0.00
2013-6-20,78.6,66.5,54.8,61.1,56.3,52.6,97,72,46,30.14,30.02,5,1,10,0.00
2013-6-21,78.9,68.8,58.7,63.1,57.4,53.6,94,69,43,30.17,30.11,3,1,7,0.00
2013-6-22,80.4,70.2,60.5,65.8,61.5,56.5,97,76,48,30.13,30.02,4,1,6,0.00
2013-6-23,82.8,73.2,64.2,72.8,67.3,60.8,94,82,66,30.06,29.95,4,1,10,0.00
2013-6-24,90.5,78.4,71.4,78.4,71.6,63.8,97,81,61,29.95,29.80,5,1,9,0.00
2013-6-25,89.4,78.2,66.9,75.6,69.9,63.7,94,77,55,29.86,29.64,3,1,7,0.00
2013-6-26,86.5,77.9,71.6,74.4,70.3,67.3,93,78,64,29.69,29.61,5,1,9,0.00
2013-6-27,82.6,75.6,69.8,74.5,71.1,67.8,98,86,73,29.69,29.49,3,1,7,0.12
2013-6-28,82.7,75.2,70.4,74.8,72.0,69.5,98,90,72,29.49,29.37,3,1,11,0.01
2013-6-29,82.4,74.4,69.8,73.7,70.6,68.1,96,88,74,29.58,29.35,4,1,13,0.01
2013-6-30,78.2,73.3,71.0,74.0,71.0,68.7,98,93,86,29.81,29.58,4,1,6,0.09
2013-7-1,76.3,73.3,71.9,74.8,72.6,71.1,99,98,94,29.94,29.79,5,1,9,0.22
2013-7-2,78.4,73.8,71.9,75.3,72.4,70.8,99,95,86,30.07,29.94,6,1,10,0.01
2013-7-3,80.1,74.7,70.5,75.2,72.5,69.3,98,93,82,30.12,30.05,4,1,7,0.00
2013-7-4,88.7,78.3,72.6,77.9,73.9,71.3,98,87,68,30.12,30.04,7,1,12,0.00
2013-7-5,88.8,79.6,72.4,78.1,73.8,70.6,95,83,67,30.07,29.96,4,1,9,0.00
2013-7-6,91.9,81.1,74.8,80.6,74.8,71.5,93,82,61,29.99,29.88,4,1,7,0.00
2013-7-7,88.5,81.1,73.4,77.4,74.5,71.6,97,81,67,29.91,29.80,5,1,6,0.00
2013-7-8,88.3,78.6,72.5,75.6,71.8,69.2,91,80,64,29.90,29.81,3,1,7,0.00
2013-7-9,86.4,78.5,70.0,75.7,72.0,67.6,93,81,63,29.93,29.87,3,1,6,0.00
2013-7-10,83.4,77.6,73.8,76.4,73.3,71.4,95,87,73,29.89,29.67,4,1,10,0.00
2013-7-11,80.3,75.4,71.6,76.8,73.3,69.9,98,93,83,29.77,29.67,3,0,5,0.08
2013-7-12,77.0,71.2,67.6,71.8,69.0,67.0,99,93,80,29.98,29.77,6,1,10,0.39
2013-7-13,80.6,73.8,68.1,78.7,73.0,67.7,100,98,91,30.15,29.98,2,0,3,0.13
2013-7-14,90.0,79.4,73.1,78.6,74.8,72.2,100,87,66,30.18,30.10,4,1,7,0.00
2013-7-15,95.2,82.5,74.8,77.7,73.9,70.7,93,77,49,30.10,29.98,6,1,10,0.00
2013-7-16,96.3,82.0,72.2,77.6,72.0,69.2,93,74,48,30.03,29.96,5,0,11,0.00
2013-7-17,91.9,81.4,71.4,77.4,73.6,69.0,96,78,59,30.04,29.92,3,0,4,0.00
2013-7-18,96.4,85.2,75.4,79.3,75.7,72.4,93,75,52,29.92,29.81,5,1,7,0.00
2013-7-19,91.8,84.2,78.0,81.7,77.7,74.8,94,81,66,29.82,29.66,6,1,11,0.00
2013-7-20,89.9,82.6,76.4,78.4,75.9,73.8,93,81,66,29.69,29.57,6,1,13,0.01
2013-7-21,87.2,78.8,73.5,74.7,70.5,65.5,94,77,55,29.83,29.69,3,0,5,0.00
2013-7-22,85.8,77.4,72.0,77.4,73.3,68.9,96,88,73,29.82,29.68,3,0,5,0.00
2013-7-23,87.4,77.8,69.4,77.4,74.6,68.8,99,90,70,29.68,29.42,5,1,15,1.37
2013-7-24,84.0,75.1,68.3,76.4,70.8,63.2,100,87,65,29.76,29.45,6,0,9,0.00
2013-7-25,71.3,64.5,61.7,62.9,60.8,57.9,98,88,74,29.90,29.76,3,1,6,0.19
2013-7-26,78.7,66.3,61.3,71.9,64.7,60.7,100,95,78,29.92,29.81,3,0,9,0.64
2013-7-27,83.4,73.1,66.2,71.2,68.2,65.0,99,85,61,29.93,29.84,3,0,5,0.00
2013-7-28,79.9,72.9,67.7,72.4,68.9,65.8,98,88,72,29.87,29.81,2,0,4,0.00
2013-7-29,87.2,76.4,67.9,75.3,70.7,62.9,99,84,55,29.94,29.81,4,0,6,0.00
2013-7-30,83.2,71.0,61.4,62.5,60.3,57.1,94,71,45,30.01,29.93,6,1,13,0.00
2013-7-31,80.7,70.5,61.8,66.3,62.6,58.9,96,77,57,30.01,29.92,5,0,6,0.00
2013-8-1,76.9,69.2,66.2,71.3,66.9,63.2,99,93,77,29.92,29.70,3,0,5,0.21
2013-8-2,81.7,73.1,67.7,69.9,67.9,63.3,99,85,61,29.77,29.64,5,1,11,0.08
2013-8-3,79.7,71.1,67.4,69.5,67.1,65.0,94,87,69,29.77,29.70,4,0,10,0.02
2013-8-4,82.3,70.2,62.1,65.1,61.0,57.8,97,75,47,29.80,29.69,5,1,11,0.00
2013-8-5,78.8,66.9,59.4,58.3,55.0,49.7,89,68,38,29.91,29.79,9,1,14,0.00
2013-8-6,82.6,68.7,57.0,67.4,60.4,53.5,98,76,46,30.00,29.90,4,0,6,0.00
2013-8-7,78.5,69.9,58.7,68.2,63.8,54.5,97,82,68,30.02,29.96,4,0,4,0.00
2013-8-8,78.2,73.0,68.2,73.6,70.5,67.3,99,92,84,29.96,29.90,5,1,6,0.17
2013-8-9,78.0,74.5,72.9,76.0,73.0,71.4,99,95,91,29.91,29.67,6,1,12,0.06
2013-8-10,85.0,74.5,67.5,72.8,66.4,61.5,98,78,46,29.90,29.69,6,1,12,0.00
2013-8-11,78.9,69.6,57.7,64.7,59.6,53.3,93,72,47,29.97,29.90,4,0,9,0.00
2013-8-12,78.9,70.7,66.6,72.8,68.6,63.8,99,93,79,29.90,29.79,2,0,3,0.08
2013-8-13,72.4,68.7,65.4,72.3,68.1,63.7,100,98,93,29.80,29.56,1,0,4,1.12
2013-8-14,77.8,66.9,60.3,67.6,58.8,53.7,100,78,46,29.87,29.58,10,1,16,0.02
2013-8-15,77.1,65.5,54.2,58.5,54.9,48.3,96,71,41,30.01,29.88,4,1,11,0.00
2013-8-16,80.1,67.6,58.6,63.3,59.3,56.2,97,77,48,30.07,29.98,3,0,4,0.00
2013-8-17,83.4,68.1,56.8,65.0,60.2,54.2,98,78,48,30.14,30.07,2,0,5,0.00
2013-8-18,75.3,66.5,60.0,67.1,61.8,57.7,96,85,68,30.13,29.99,1,0,4,0.00
2013-8-19,77.6,68.0,58.2,68.9,62.7,56.3,96,84,63,29.99,29.88,3,0,8,0.00
2013-8-20,84.8,71.7,61.2,70.0,64.7,59.6,99,80,50,29.99,29.89,5,1,9,0.01
2013-8-21,86.7,74.5,64.1,70.9,67.0,62.0,98,80,49,30.02,29.92,4,0,6,0.00
2013-8-22,77.6,72.3,70.0,75.1,70.7,68.4,99,95,87,29.93,29.73,3,0,6,0.29
2013-8-23,78.6,71.9,64.0,69.5,66.4,60.9,98,84,57,29.95,29.70,4,0,9,0.00
2013-8-24,79.8,66.7,59.1,62.7,59.3,56.0,93,78,52,30.21,29.96,3,0,6,0.00
2013-8-25,82.7,67.2,54.6,64.1,58.5,51.9,99,76,44,30.24,30.10,5,0,7,0.00
2013-8-26,76.6,71.0,67.4,70.3,65.1,58.5,97,82,72,30.09,29.78,4,1,13,0.11
2013-8-27,85.5,72.9,68.4,75.4,70.5,66.9,99,93,71,29.78,29.67,3,0,9,0.20
2013-8-28,82.9,72.4,65.2,75.4,69.6,63.7,99,91,75,29.76,29.71,2,0,4,0.01
2013-8-29,77.7,70.6,66.8,69.9,67.3,63.8,97,90,74,29.90,29.75,2,0,6,0.01
2013-8-30,80.0,70.6,63.7,72.2,66.9,61.4,95,88,76,29.89,29.73,5,1,8,0.00
2013-8-31,79.8,74.3,71.1,74.0,71.2,69.5,95,90,81,29.74,29.67,6,1,10,0.00
2013-9-1,75.9,74.3,73.0,75.5,73.0,71.0,99,96,92,29.73,29.68,3,1,6,0.18
2013-9-2,77.5,74.0,70.8,75.4,72.9,69.3,99,96,91,29.70,29.58,3,0,4,0.01
2013-9-3,76.8,71.0,65.6,74.0,69.5,61.7,100,95,80,29.72,29.57,3,0,9,0.63
2013-9-4,80.6,67.9,58.5,65.7,61.2,57.4,99,81,54,29.83,29.72,6,1,7,0.01
2013-9-5,76.7,67.8,60.3,65.5,58.3,46.8,95,74,42,29.99,29.77,6,1,15,0.00
2013-9-6,72.2,60.4,53.1,54.6,50.0,46.8,87,70,48,30.10,29.99,4,0,9,0.00
2013-9-7,74.0,62.5,50.3,61.1,53.5,47.5,95,74,47,29.99,29.76,5,1,7,0.00
2013-9-8,78.7,69.5,59.5,66.1,59.4,47.2,94,72,37,29.93,29.66,6,1,10,0.00
2013-9-9,69.6,59.7,48.1,55.9,50.4,44.1,91,73,54,30.10,29.93,3,0,5,0.00
2013-9-10,75.6,68.9,59.0,71.6,66.4,55.8,98,92,83,30.04,29.93,6,1,11,0.08
2013-9-11,83.3,76.0,70.4,76.8,72.2,69.5,98,89,73,29.98,29.86,4,1,10,0.00
2013-9-12,77.8,73.5,69.6,74.0,71.2,68.7,99,93,86,29.86,29.55,5,1,14,1.05
2013-9-13,74.9,68.5,60.9,69.3,65.1,55.0,99,89,67,29.66,29.47,6,1,13,0.02
2013-9-14,67.5,59.8,53.9,55.6,53.2,50.1,88,79,60,29.95,29.66,7,1,12,0.00
2013-9-15,66.9,57.7,48.5,56.4,52.0,46.3,97,82,64,30.06,29.95,5,0,6,0.00
2013-9-16,68.9,61.5,57.2,61.5,56.7,44.9,97,85,61,30.07,29.90,5,0,10,0.02
2013-9-17,61.9,53.5,46.0,48.9,42.9,39.5,87,68,50,30.28,30.07,4,1,9,0.00
2013-9-18,67.5,54.2,42.9,52.4,46.8,40.2,98,78,53,30.21,30.05,3,0,6,0.00
2013-9-19,71.1,59.6,48.4,57.5,53.1,47.0,98,81,56,30.06,29.94,4,0,6,0.00
2013-9-20,73.5,62.0,51.4,61.3,56.5,50.0,99,84,56,29.96,29.88,3,0,6,0.00
2013-9-21,75.1,64.9,51.5,68.8,61.9,48.9,99,90,79,29.89,29.57,8,1,9,0.00
2013-9-22,69.4,64.1,55.4,68.0,58.3,45.2,99,83,58,29.74,29.51,8,1,14,1.65
2013-9-23,63.5,55.2,49.7,49.0,45.7,43.4,86,71,53,29.89,29.74,7,1,15,0.00
2013-9-24,67.4,54.8,45.0,55.3,47.0,42.5,93,76,52,29.89,29.72,5,1,12,0.00
2013-9-25,69.2,56.2,45.6,57.2,50.0,43.7,99,81,48,29.80,29.73,3,0,6,0.00
2013-9-26,66.8,58.5,51.2,57.1,53.8,48.7,97,85,63,29.96,29.80,3,0,5,0.00
2013-9-27,65.4,57.1,48.5,56.8,52.2,45.9,97,85,65,30.12,29.96,3,0,5,0.00
2013-9-28,70.2,58.9,49.4,58.8,53.6,47.5,99,84,58,30.18,30.10,3,0,5,0.00
2013-9-29,66.4,56.0,47.7,56.3,50.0,45.3,99,82,47,30.10,29.95,2,0,5,0.00
2013-9-30,67.9,56.0,48.8,58.5,52.7,46.5,99,89,68,29.95,29.84,3,0,6,0.00
2013-10-1,73.7,61.0,49.6,61.4,57.2,48.2,95,88,62,29.85,29.75,1,0,3,0.00
2013-10-2,79.3,65.5,54.4,65.8,59.6,53.0,99,83,54,29.85,29.75,7,1,11,0.00
2013-10-3,74.3,63.3,53.9,61.2,56.4,51.0,99,80,48,29.98,29.86,3,0,6,0.00
2013-10-4,78.9,67.3,59.0,69.4,63.5,56.7,99,88,71,29.94,29.84,5,0,6,0.00
2013-10-5,72.8,66.5,63.4,66.9,63.2,62.0,96,89,77,29.96,29.87,3,0,5,0.00
2013-10-6,66.0,64.6,64.1,65.4,63.2,62.2,98,95,92,29.99,29.92,2,0,4,0.00
2013-10-7,75.2,68.5,60.9,70.9,66.7,57.3,99,94,84,29.92,29.70,8,1,19,0.09
2013-10-8,65.2,57.1,50.5,57.0,49.6,46.0,95,77,50,30.18,29.81,4,1,12,0.00
2013-10-9,62.8,56.2,50.9,52.7,48.9,44.2,88,77,64,30.26,30.16,4,1,10,0.00
2013-10-10,65.0,59.0,54.3,60.5,55.0,49.5,94,86,82,30.15,29.94,4,1,8,0.01
2013-10-11,67.6,62.9,59.6,61.5,58.5,56.0,92,86,78,29.95,29.89,4,1,7,0.00
2013-10-12,68.2,61.2,56.2,57.2,52.6,42.6,85,74,56,30.16,29.93,7,1,12,0.01
2013-10-13,63.1,56.5,48.0,54.1,50.9,44.9,91,82,67,30.24,30.14,5,1,7,0.00
2013-10-14,62.5,50.9,42.2,54.0,46.3,39.5,98,85,67,30.24,30.12,3,0,5,0.00
2013-10-15,67.4,52.2,40.6,54.3,46.3,38.2,99,82,49,30.13,30.00,2,0,5,0.00
2013-10-16,67.9,59.0,48.7,61.1,55.6,46.3,96,89,76,29.99,29.78,2,0,4,0.00
2013-10-17,70.7,63.4,58.6,64.2,60.7,57.2,96,91,79,29.78,29.59,3,0,6,0.00
2013-10-18,65.9,60.0,48.5,62.9,51.7,44.5,97,75,49,29.83,29.53,7,2,18,0.02
2013-10-19,65.1,54.1,44.3,56.0,47.7,41.7,97,81,50,29.86,29.61,2,0,5,0.02
2013-10-20,60.8,53.8,44.8,58.9,44.5,38.8,99,73,46,29.92,29.58,6,1,16,0.00
2013-10-21,63.4,51.5,41.0,47.2,42.1,37.8,92,72,45,30.01,29.86,3,0,7,0.00
2013-10-22,66.2,55.6,47.5,54.5,49.0,43.7,98,80,57,29.86,29.59,7,1,12,0.00
2013-10-23,51.7,45.9,39.4,47.0,41.8,36.1,95,86,60,29.67,29.46,1,0,6,0.03
2013-10-24,53.7,44.9,35.9,41.6,33.4,28.6,95,67,40,29.83,29.57,10,1,17,0.00
2013-10-25,51.2,42.5,33.1,36.7,31.9,29.8,92,68,46,30.07,29.83,9,1,14,0.00
2013-10-26,53.5,45.2,33.2,41.7,35.0,30.8,93,69,47,30.07,29.77,7,2,18,0.00
2013-10-27,56.8,49.3,39.7,40.7,35.7,32.5,78,60,42,29.96,29.72,7,1,15,0.00
2013-10-28,59.1,45.6,34.1,40.0,35.6,30.8,90,70,45,30.17,29.96,5,1,10,0.00
2013-10-29,53.2,44.6,35.9,39.3,34.7,31.7,86,69,48,30.27,30.17,5,0,10,0.01
2013-10-30,58.8,48.5,35.9,52.8,43.9,32.5,93,84,69,30.22,30.06,3,0,5,0.00
2013-10-31,64.9,57.6,48.7,61.2,55.3,47.0,99,92,84,30.09,29.70,6,1,12,0.00
2013-11-1,65.4,61.5,56.5,62.9,59.7,55.6,97,94,88,29.71,29.43,10,2,17,0.08
2013-11-2,64.1,55.5,49.5,56.0,50.8,46.7,99,85,56,29.61,29.47,2,0,9,0.00
2013-11-3,51.7,46.1,38.0,46.7,36.9,24.1,94,71,55,30.27,29.61,10,1,16,0.00
2013-11-4,45.2,37.4,30.1,27.5,24.3,21.5,79,60,39,30.53,30.28,3,1,9,0.00
2013-11-5,53.2,41.3,30.5,40.0,34.6,25.0,90,78,58,30.53,30.36,2,0,6,0.00
2013-11-6,58.7,47.6,34.1,55.0,43.9,31.5,99,88,70,30.38,29.95,4,0,7,0.00
2013-11-7,61.0,55.0,40.2,60.7,53.7,36.9,99,95,83,29.95,29.59,5,1,17,0.29
2013-11-8,48.4,41.7,34.0,36.2,31.1,26.9,95,68,45,30.05,29.76,10,2,19,0.00
2013-11-9,48.8,41.9,32.0,39.3,31.4,27.0,86,67,46,30.13,29.89,5,1,12,0.00
2013-11-10,60.2,50.4,45.6,42.2,37.0,31.0,76,61,33,29.89,29.63,14,3,30,0.00
2013-11-11,51.9,48.0,42.2,41.1,32.9,28.6,70,56,43,30.03,29.82,12,2,18,0.00
2013-11-12,50.8,38.5,31.2,39.0,29.7,20.1,94,71,61,30.10,29.78,10,2,16,0.11
2013-11-13,36.6,30.6,25.6,21.1,19.3,15.9,76,63,44,30.19,30.10,7,2,18,0.00
2013-11-14,48.1,39.3,26.2,29.6,23.4,19.4,79,54,36,30.12,30.00,5,1,15,0.00
2013-11-15,53.2,42.0,32.1,41.9,35.0,27.8,95,77,60,30.11,30.04,3,1,6,0.00
2013-11-16,56.1,44.4,35.4,47.0,40.8,33.7,97,88,67,30.18,30.09,3,0,6,0.01
2013-11-17,60.2,53.5,38.3,59.3,52.5,36.2,99,96,92,30.15,29.69,7,1,10,0.01
2013-11-18,64.0,57.7,51.2,60.2,47.0,31.3,99,71,39,29.69,29.46,8,2,17,0.24
2013-11-19,51.2,43.6,34.6,31.7,27.5,23.3,64,53,46,30.19,29.59,15,3,27,0.00
2013-11-20,41.1,32.8,23.9,23.3,20.8,17.6,79,62,41,30.47,30.18,3,1,10,0.00
2013-11-21,47.7,36.1,23.0,40.6,30.1,17.7,89,79,62,30.49,30.26,3,0,5,0.00
2013-11-22,52.7,49.0,43.7,51.3,47.4,40.6,99,94,89,30.26,29.73,4,0,7,0.10
2013-11-23,51.0,42.5,31.7,49.9,30.8,13.2,98,64,42,29.84,29.72,16,3,23,0.00
2013-11-24,31.7,26.6,23.7,16.0,6.7,-1.9,57,43,26,30.17,29.79,18,4,27,0.00
2013-11-25,34.8,26.7,15.8,23.0,14.4,8.1,80,60,40,30.33,30.17,12,1,14,0.00
2013-11-26,51.1,39.8,34.5,50.8,29.8,20.2,99,69,45,30.20,29.73,7,1,10,0.28
2013-11-27,60.7,50.0,35.8,60.4,49.0,29.3,99,96,77,29.72,29.14,12,3,20,1.27
2013-11-28,35.5,30.4,23.1,28.3,19.5,15.2,81,64,48,30.33,29.52,18,3,27,0.00
2013-11-29,37.6,30.4,23.9,24.2,21.1,18.3,83,69,49,30.58,30.33,6,1,12,0.00
2013-11-30,39.5,28.9,19.8,35.1,21.4,15.5,86,74,52,30.62,30.26,3,0,4,0.00
2013-12-1,50.5,43.0,35.1,46.2,40.7,34.1,97,92,81,30.24,29.87,3,0,6,0.01
2013-12-2,46.3,37.2,32.3,41.8,35.6,30.8,99,94,84,29.87,29.75,2,0,5,0.00
2013-12-3,49.1,37.8,30.8,40.3,34.3,28.7,99,88,60,29.86,29.72,6,0,7,0.00
2013-12-4,49.6,39.4,28.4,44.2,36.0,26.9,98,88,68,30.01,29.86,2,0,5,0.00
2013-12-5,59.8,53.5,45.2,57.8,52.4,44.4,99,96,92,30.01,29.82,4,1,12,0.00
2013-12-6,56.4,47.4,38.0,56.4,46.6,37.2,100,97,93,29.97,29.76,6,1,9,0.29
2013-12-7,39.4,35.4,28.9,37.6,31.9,22.8,99,87,72,30.35,29.92,5,1,17,0.22
2013-12-8,33.9,30.2,23.8,31.1,25.2,20.3,96,82,68,30.45,30.25,2,0,4,0.00
2013-12-9,47.4,37.3,31.5,47.3,36.8,30.5,100,98,95,30.25,29.77,7,1,9,0.43
2013-12-10,36.1,32.6,27.9,34.1,31.0,22.4,98,94,79,29.96,29.67,7,1,13,0.09
2013-12-11,33.3,28.9,24.9,21.9,19.0,16.7,77,66,55,30.17,29.96,7,2,15,0.00
2013-12-12,28.3,23.9,18.1,19.2,13.2,8.1,78,64,47,30.19,30.01,9,1,16,0.00
2013-12-13,33.4,26.7,20.8,20.3,13.8,7.6,82,59,47,30.20,29.97,9,2,21,0.00
2013-12-14,39.3,26.8,22.2,38.8,23.4,18.7,98,87,71,30.39,29.76,7,1,11,0.19
2013-12-15,46.7,36.5,30.9,46.4,34.0,24.2,99,91,70,29.72,29.29,14,3,23,1.66
2013-12-16,32.5,26.8,17.0,24.3,15.7,11.0,83,63,48,30.09,29.67,15,2,20,0.00
2013-12-17,33.8,26.2,16.8,33.3,23.7,11.7,98,90,75,30.10,29.75,3,1,9,0.55
2013-12-18,34.4,28.6,24.2,26.4,24.1,21.9,95,84,68,30.02,29.74,14,2,20,0.00
2013-12-19,42.6,33.7,22.9,34.7,28.1,20.4,94,80,60,30.04,29.89,6,1,14,0.06
2013-12-20,47.8,40.9,31.0,44.9,37.6,29.6,99,88,69,29.98,29.84,4,1,12,0.01
2013-12-21,53.7,49.6,45.1,52.4,47.7,44.2,98,93,86,29.89,29.78,10,2,12,0.00
2013-12-22,59.2,55.2,53.4,56.6,53.9,52.0,99,95,88,29.85,29.72,10,2,15,0.00
2013-12-23,56.0,51.5,40.2,54.3,50.8,39.2,99,97,93,29.98,29.74,9,1,12,0.37
2013-12-24,40.1,34.8,27.5,38.8,27.5,20.4,95,75,55,30.14,29.92,10,2,18,0.00
2013-12-25,27.9,23.9,20.0,20.1,13.9,10.8,78,65,53,30.39,30.15,7,1,16,0.00
2013-12-26,36.8,29.7,23.9,31.6,24.9,17.4,91,82,69,30.32,30.00,6,1,14,0.02
2013-12-27,38.1,29.2,21.5,26.1,22.5,19.3,94,77,49,30.21,30.12,11,1,14,0.00
2013-12-28,46.9,35.6,24.1,38.9,30.7,21.9,97,83,58,30.15,29.93,6,1,13,0.01
2013-12-29,53.0,42.1,35.0,52.7,40.5,32.8,99,94,83,29.94,29.21,7,1,17,1.37
2013-12-30,43.0,34.7,23.2,40.1,29.1,13.5,99,80,65,30.03,29.51,10,1,15,0.00
2013-12-31,30.9,25.2,18.4,22.3,15.7,11.0,79,67,51,30.11,29.92,9,1,15,0.00
2014-1-1,31.4,26.6,18.7,23.4,16.5,10.0,78,66,49,30.27,30.11,7,1,13,0.00
2014-1-2,31.0,28.0,19.4,28.0,25.2,17.7,95,89,71,30.13,29.51,7,2,9,0.00